createdAt,value
2018-12-22T00:01:53.969Z,260.45
2018-12-22T00:04:22.538Z,214.68
2018-12-22T00:06:51.235Z,216.78
2018-12-22T00:09:19.952Z,338.48
2018-12-22T00:11:48.637Z,251.47
2018-12-22T00:14:17.232Z,234.50
2018-12-22T00:16:46.015Z,214.60
2018-12-22T00:19:14.604Z,186.73
2018-12-22T00:21:43.269Z,207.70
2018-12-22T00:24:12.014Z,169.20
2018-12-22T00:26:40.566Z,233.82
2018-12-22T00:29:09.269Z,275.95
2018-12-22T00:31:38.132Z,317.85
2018-12-22T00:34:07.314Z,283.60
2018-12-22T00:36:35.969Z,231.10
2018-12-22T00:39:06.510Z,187.15
2018-12-22T00:41:35.147Z,237.23
2018-12-22T00:44:03.894Z,199.97
2018-12-22T00:46:32.501Z,368.65
2018-12-22T00:49:01.024Z,209.03
2018-12-22T00:51:29.541Z,179.45
2018-12-22T00:53:58.134Z,371.73
2018-12-22T00:56:26.906Z,208.85
2018-12-22T00:58:55.554Z,357.57
2018-12-22T01:01:24.156Z,272.77
2018-12-22T01:03:52.768Z,308.10
2018-12-22T01:06:21.296Z,181.20
2018-12-22T01:08:49.844Z,293.25
2018-12-22T01:11:18.389Z,275.93
2018-12-22T01:13:47.185Z,227.90
2018-12-22T01:16:15.953Z,275.98
2018-12-22T01:18:44.609Z,179.65
2018-12-22T01:21:13.140Z,227.72
2018-12-22T01:23:41.708Z,224.12
2018-12-22T01:26:10.291Z,170.02
2018-12-22T01:28:39.538Z,218.75
2018-12-22T01:31:08.519Z,205.45
2018-12-22T01:33:37.108Z,291.50
2018-12-22T01:36:05.623Z,168.45
2018-12-22T01:38:34.121Z,250.50
2018-12-22T01:41:02.852Z,278.45
2018-12-22T01:43:31.489Z,220.07
2018-12-22T01:46:00.162Z,232.30
2018-12-22T01:48:28.714Z,209.98
2018-12-22T01:50:57.266Z,187.90
2018-12-22T01:53:25.892Z,184.65
2018-12-22T01:55:54.419Z,164.50
2018-12-22T01:58:22.970Z,173.50
2018-12-22T02:00:51.507Z,210.08
2018-12-22T02:03:20.031Z,191.57
2018-12-22T02:05:48.673Z,166.03
2018-12-22T02:08:17.258Z,227.43
2018-12-22T02:10:45.859Z,175.38
2018-12-22T02:13:14.465Z,139.62
2018-12-22T02:15:43.105Z,190.68
2018-12-22T02:18:11.698Z,250.72
2018-12-22T02:20:40.282Z,232.55
2018-12-22T02:23:08.875Z,203.50
2018-12-22T02:25:37.447Z,183.62
2018-12-22T02:28:06.020Z,186.80
2018-12-22T02:30:34.604Z,219.15
2018-12-22T02:33:03.215Z,217.37
2018-12-22T02:35:31.856Z,200.85
2018-12-22T02:38:00.809Z,146.65
2018-12-22T02:40:29.380Z,189.93
2018-12-22T02:42:57.999Z,205.60
2018-12-22T02:45:26.653Z,157.93
2018-12-22T02:47:55.192Z,225.82
2018-12-22T02:50:24.391Z,198.55
2018-12-22T02:52:52.974Z,262.02
2018-12-22T02:55:21.994Z,171.95
2018-12-22T02:57:50.741Z,220.82
2018-12-22T03:00:19.441Z,216.70
2018-12-22T03:02:47.997Z,146.18
2018-12-22T03:05:16.852Z,204.05
2018-12-22T03:07:45.399Z,143.35
2018-12-22T03:10:14.034Z,147.25
2018-12-22T03:12:42.562Z,139.92
2018-12-22T03:15:11.126Z,129.40
2018-12-22T03:17:39.677Z,126.35
2018-12-22T03:20:08.360Z,130.07
2018-12-22T03:22:37.002Z,164.47
2018-12-22T03:25:05.769Z,187.92
2018-12-22T03:27:34.335Z,139.18
2018-12-22T03:30:06.282Z,142.32
2018-12-22T03:32:34.859Z,167.90
2018-12-22T03:35:03.528Z,148.20
2018-12-22T03:37:32.106Z,197.65
2018-12-22T03:40:00.698Z,131.63
2018-12-22T03:42:29.342Z,163.80
2018-12-22T03:44:57.906Z,196.55
2018-12-22T03:47:26.508Z,164.67
2018-12-22T03:49:55.042Z,241.97
2018-12-22T03:52:23.600Z,141.70
2018-12-22T03:54:52.138Z,150.93
2018-12-22T03:57:20.693Z,142.50
2018-12-22T03:59:49.538Z,137.90
2018-12-22T04:02:18.104Z,209.05
2018-12-22T04:04:46.767Z,129.78
2018-12-22T04:07:15.902Z,152.20
2018-12-22T04:09:44.657Z,125.55
2018-12-22T04:12:13.233Z,169.37
2018-12-22T04:14:42.395Z,157.30
2018-12-22T04:17:11.060Z,164.47
2018-12-22T04:19:39.686Z,246.37
2018-12-22T04:22:08.222Z,196.87
2018-12-22T04:24:36.862Z,210.08
2018-12-22T04:27:05.405Z,182.60
2018-12-22T04:29:34.415Z,167.45
2018-12-22T04:32:03.081Z,154.10
2018-12-22T04:34:31.635Z,244.62
2018-12-22T04:37:00.176Z,209.98
2018-12-22T04:39:28.801Z,264.68
2018-12-22T04:41:57.371Z,191.55
2018-12-22T04:44:25.904Z,190.00
2018-12-22T04:46:54.505Z,155.75
2018-12-22T04:49:23.043Z,203.95
2018-12-22T04:51:51.606Z,187.22
2018-12-22T04:54:20.161Z,194.70
2018-12-22T04:56:48.776Z,140.75
2018-12-22T04:59:17.295Z,136.15
2018-12-22T05:01:45.841Z,141.95
2018-12-22T05:04:14.449Z,162.72
2018-12-22T05:06:42.983Z,146.05
2018-12-22T05:09:11.550Z,127.55
2018-12-22T05:11:40.201Z,186.28
2018-12-22T05:14:08.764Z,131.60
2018-12-22T05:16:37.336Z,145.65
2018-12-22T05:19:05.924Z,138.40
2018-12-22T05:21:34.433Z,119.60
2018-12-22T05:24:03.002Z,126.22
2018-12-22T05:26:31.547Z,136.25
2018-12-22T05:29:00.094Z,120.28
2018-12-22T05:31:28.779Z,146.57
2018-12-22T05:33:57.565Z,123.15
2018-12-22T05:36:26.109Z,111.50
2018-12-22T05:38:54.808Z,114.55
2018-12-22T05:41:23.905Z,106.87
2018-12-22T05:43:52.523Z,91.65
2018-12-22T05:46:21.086Z,120.82
2018-12-22T05:48:49.775Z,111.52
2018-12-22T05:51:18.336Z,116.30
2018-12-22T05:53:46.843Z,108.78
2018-12-22T05:56:15.411Z,105.03
2018-12-22T05:58:43.998Z,100.72
2018-12-22T06:01:12.535Z,112.35
2018-12-22T06:03:41.145Z,104.80
2018-12-22T06:06:09.877Z,88.50
2018-12-22T06:08:38.404Z,87.82
2018-12-22T06:11:06.987Z,85.87
2018-12-22T06:13:35.823Z,99.17
2018-12-22T06:16:05.447Z,113.55
2018-12-22T06:18:34.052Z,100.53
2018-12-22T06:21:02.715Z,106.22
2018-12-22T06:23:31.322Z,119.53
2018-12-22T06:25:59.890Z,106.90
2018-12-22T06:28:28.507Z,121.82
2018-12-22T06:30:57.068Z,115.17
2018-12-22T06:33:25.647Z,121.90
2018-12-22T06:35:54.239Z,105.37
2018-12-22T06:38:22.828Z,127.85
2018-12-22T06:40:51.364Z,115.03
2018-12-22T06:43:19.949Z,114.95
2018-12-22T06:45:48.621Z,126.47
2018-12-22T06:48:17.200Z,123.00
2018-12-22T06:50:45.787Z,135.30
2018-12-22T06:53:14.709Z,140.52
2018-12-22T06:55:43.272Z,131.35
2018-12-22T06:58:11.838Z,140.88
2018-12-22T07:00:40.369Z,134.15
2018-12-22T07:03:08.929Z,119.53
2018-12-22T07:05:37.525Z,151.10
2018-12-22T07:08:06.090Z,131.45
2018-12-22T07:10:34.723Z,144.32
2018-12-22T07:13:03.308Z,141.22
2018-12-22T07:15:31.884Z,152.78
2018-12-22T07:18:00.476Z,134.97
2018-12-22T07:20:29.130Z,139.28
2018-12-22T07:22:57.798Z,148.75
2018-12-22T07:25:26.401Z,154.65
2018-12-22T07:27:55.017Z,134.60
2018-12-22T07:30:26.272Z,136.50
2018-12-22T07:32:57.133Z,141.92
2018-12-22T07:35:24.964Z,162.05
2018-12-22T07:37:53.520Z,138.30
2018-12-22T07:40:22.033Z,163.18
2018-12-22T07:42:50.741Z,157.70
2018-12-22T07:45:19.398Z,143.22
2018-12-22T07:47:47.936Z,159.00
2018-12-22T07:50:16.646Z,162.32
2018-12-22T07:52:51.619Z,169.87
2018-12-22T07:55:15.762Z,156.95
2018-12-22T07:57:44.314Z,191.53
2018-12-22T08:00:12.891Z,158.63
2018-12-22T08:02:41.478Z,166.53
2018-12-22T08:05:10.084Z,139.45
2018-12-22T08:07:38.598Z,189.37
2018-12-22T08:10:07.731Z,160.88
2018-12-22T08:12:36.341Z,154.42
2018-12-22T08:15:05.170Z,144.97
2018-12-22T08:17:33.738Z,155.52
2018-12-22T08:20:02.343Z,180.80
2018-12-22T08:22:31.001Z,180.90
2018-12-22T08:24:59.596Z,155.15
2018-12-22T08:27:28.238Z,168.00
2018-12-22T08:29:56.934Z,185.83
2018-12-22T08:32:25.509Z,170.67
2018-12-22T08:34:54.145Z,169.60
2018-12-22T08:37:22.734Z,170.53
2018-12-22T08:39:51.293Z,180.30
2018-12-22T08:42:19.849Z,178.73
2018-12-22T08:44:48.493Z,174.63
2018-12-22T08:47:17.068Z,187.57
2018-12-22T08:49:45.674Z,189.63
2018-12-22T08:52:14.350Z,172.50
2018-12-22T08:54:42.948Z,210.43
2018-12-22T08:57:11.520Z,223.27
2018-12-22T08:59:40.087Z,231.20
2018-12-22T09:02:08.676Z,226.47
2018-12-22T09:04:37.236Z,222.83
2018-12-22T09:07:05.816Z,211.47
2018-12-22T09:09:34.469Z,210.80
2018-12-22T09:12:03.081Z,213.43
2018-12-22T09:14:31.640Z,206.30
2018-12-22T09:17:00.221Z,220.60
2018-12-22T09:19:28.765Z,214.80
2018-12-22T09:21:57.338Z,207.20
2018-12-22T09:24:26.004Z,214.10
2018-12-22T09:26:54.641Z,212.27
2018-12-22T09:29:23.200Z,202.10
2018-12-22T09:31:51.790Z,202.80
2018-12-22T09:34:20.343Z,210.27
2018-12-22T09:36:48.893Z,207.60
2018-12-22T09:39:17.528Z,215.73
2018-12-22T09:41:46.113Z,217.60
2018-12-22T09:44:14.744Z,214.03
2018-12-22T09:46:43.406Z,210.97
2018-12-22T09:49:11.996Z,214.83
2018-12-22T09:51:40.568Z,205.23
2018-12-22T09:54:09.099Z,189.87
2018-12-22T09:56:37.684Z,181.63
2018-12-22T09:59:06.540Z,183.33
2018-12-22T10:01:35.301Z,171.40
2018-12-22T10:04:03.876Z,160.00
2018-12-22T10:06:32.391Z,162.10
2018-12-22T10:09:00.967Z,170.97
2018-12-22T10:11:29.606Z,185.33
2018-12-22T10:13:58.157Z,184.83
2018-12-22T10:16:26.764Z,177.70
2018-12-22T10:18:55.270Z,211.93
2018-12-22T10:21:23.785Z,209.10
2018-12-22T10:23:52.355Z,205.50
2018-12-22T10:26:21.029Z,205.47
2018-12-22T10:28:49.628Z,217.40
2018-12-22T10:31:18.434Z,208.97
2018-12-22T10:33:47.131Z,198.90
2018-12-22T10:36:15.764Z,192.47
2018-12-22T10:38:44.336Z,190.60
2018-12-22T10:41:12.853Z,184.43
2018-12-22T10:43:41.387Z,179.40
2018-12-22T10:46:09.992Z,190.73
2018-12-22T10:48:38.626Z,200.43
2018-12-22T10:51:07.236Z,198.60
2018-12-22T10:53:35.794Z,196.03
2018-12-22T10:56:04.343Z,200.47
2018-12-22T10:58:32.930Z,197.93
2018-12-22T11:01:01.465Z,194.67
2018-12-22T11:03:32.031Z,202.97
2018-12-22T11:06:00.694Z,198.87
2018-12-22T11:08:29.265Z,199.10
2018-12-22T11:10:57.828Z,188.97
2018-12-22T11:13:26.415Z,187.67
2018-12-22T11:15:54.985Z,188.23
2018-12-22T11:18:23.561Z,166.30
2018-12-22T11:20:52.196Z,187.50
2018-12-22T11:23:20.864Z,190.10
2018-12-22T11:25:49.421Z,195.10
2018-12-22T11:28:17.952Z,200.50
2018-12-22T11:30:46.782Z,190.87
2018-12-22T11:33:15.320Z,174.43
2018-12-22T11:35:43.846Z,169.67
2018-12-22T11:38:12.431Z,157.27
2018-12-22T11:40:41.053Z,160.97
2018-12-22T11:43:09.703Z,177.90
2018-12-22T11:45:38.373Z,187.50
2018-12-22T11:48:21.849Z,202.30
2018-12-22T11:50:50.408Z,177.60
2018-12-22T11:53:19.001Z,173.43
2018-12-22T11:55:47.577Z,171.03
2018-12-22T11:58:16.212Z,165.13
2018-12-22T12:00:44.774Z,163.67
2018-12-22T12:03:13.306Z,161.57
2018-12-22T12:05:42.560Z,156.30
2018-12-22T12:08:11.094Z,160.00
2018-12-22T12:10:39.627Z,159.27
2018-12-22T12:13:08.160Z,145.83
2018-12-22T12:15:43.002Z,152.17
2018-12-22T12:18:55.816Z,144.87
2018-12-22T12:21:24.352Z,142.70
2018-12-22T12:23:52.902Z,142.53
2018-12-22T12:26:21.467Z,139.27
2018-12-22T12:28:49.972Z,143.43
2018-12-22T14:05:33.449Z,146.53
2018-12-22T14:08:01.999Z,152.13
2018-12-22T14:10:30.553Z,159.17
2018-12-22T14:12:59.132Z,153.47
2018-12-22T14:15:27.829Z,153.33
2018-12-22T14:19:03.848Z,160.83
2018-12-22T14:21:32.433Z,164.53
2018-12-22T14:24:14.514Z,181.57
2018-12-22T14:26:43.204Z,178.93
2018-12-22T14:29:11.764Z,186.27
2018-12-22T14:31:40.465Z,186.23
2018-12-22T14:34:13.582Z,191.03
2018-12-22T14:36:42.277Z,210.80
2018-12-22T14:39:10.914Z,227.47
2018-12-22T14:41:39.655Z,216.50
2018-12-22T14:44:08.271Z,213.20
2018-12-22T14:46:36.847Z,195.90
2018-12-22T14:49:05.420Z,179.47
2018-12-22T14:51:33.992Z,190.03
2018-12-22T14:54:02.522Z,187.00
2018-12-22T14:56:37.074Z,191.17
2018-12-22T14:59:06.249Z,182.60
2018-12-22T15:01:34.811Z,178.27
2018-12-22T15:04:03.392Z,193.53
2018-12-22T15:06:31.987Z,157.93
2018-12-22T15:09:00.569Z,159.43
2018-12-22T15:11:29.169Z,152.10
2018-12-22T15:13:57.722Z,135.67
2018-12-22T15:16:26.307Z,139.10
2018-12-22T15:18:55.027Z,147.07
2018-12-22T15:21:23.606Z,147.63
2018-12-22T15:23:52.168Z,142.33
2018-12-22T15:26:20.721Z,138.77
2018-12-22T15:28:49.286Z,136.07
2018-12-22T15:31:17.905Z,141.93
2018-12-22T15:33:46.479Z,156.87
2018-12-22T15:36:15.086Z,150.10
2018-12-22T15:38:43.639Z,163.17
2018-12-22T15:41:12.213Z,175.20
2018-12-22T15:43:40.773Z,155.27
2018-12-22T15:46:09.335Z,217.17
2018-12-22T15:48:37.939Z,211.60
2018-12-22T15:51:06.517Z,242.70
2018-12-22T15:53:35.037Z,204.13
2018-12-22T15:56:03.613Z,204.13
2018-12-22T15:58:32.149Z,192.13
2018-12-22T16:01:01.636Z,190.73
2018-12-22T16:03:30.292Z,172.87
2018-12-22T16:05:58.868Z,253.30
2018-12-22T16:08:27.489Z,279.87
2018-12-22T16:10:56.083Z,277.57
2018-12-22T16:13:24.687Z,263.47
2018-12-22T16:15:53.617Z,265.80
2018-12-22T16:18:22.198Z,238.23
2018-12-22T16:20:50.753Z,239.00
2018-12-22T16:23:19.310Z,256.43
2018-12-22T16:25:47.906Z,262.17
2018-12-22T16:28:20.752Z,278.23
2018-12-22T16:30:54.453Z,226.77
2018-12-22T16:33:23.215Z,269.03
2018-12-22T16:35:51.728Z,268.77
2018-12-22T16:38:20.327Z,284.50
2018-12-22T16:40:48.943Z,298.73
2018-12-22T16:43:18.503Z,285.57
2018-12-22T16:45:49.399Z,278.77
2018-12-22T16:48:19.073Z,308.17
2018-12-22T16:50:48.048Z,372.53
2018-12-22T16:53:16.639Z,490.73
2018-12-22T16:55:45.232Z,586.37
2018-12-22T16:58:24.138Z,583.33
2018-12-22T17:00:58.071Z,569.13
2018-12-22T17:03:26.771Z,470.60
2018-12-22T17:05:55.338Z,517.70
2018-12-22T17:08:23.908Z,389.27
2018-12-22T17:10:56.680Z,484.80
2018-12-22T17:13:25.365Z,458.40
2018-12-22T17:15:56.816Z,405.67
2018-12-22T17:18:25.772Z,395.00
2018-12-22T17:21:01.888Z,431.17
2018-12-22T17:23:39.504Z,419.23
2018-12-22T17:26:09.438Z,380.67
2018-12-22T17:28:38.028Z,409.20
2018-12-22T17:31:06.635Z,387.87
2018-12-22T17:33:36.294Z,316.97
2018-12-22T17:36:05.478Z,372.40
2018-12-22T17:38:34.028Z,364.93
2018-12-22T17:41:02.959Z,375.97
2018-12-22T17:43:31.850Z,396.83
2018-12-22T17:46:00.560Z,375.33
2018-12-22T17:48:29.184Z,346.57
2018-12-22T17:50:57.736Z,360.63
2018-12-22T17:53:26.289Z,311.57
2018-12-22T17:55:54.889Z,308.97
2018-12-22T17:58:23.595Z,329.73
2018-12-22T18:00:52.245Z,308.80
2018-12-22T18:03:27.372Z,334.50
2018-12-22T18:05:52.837Z,343.67
2018-12-22T18:08:21.394Z,479.93
2018-12-22T18:10:50.860Z,396.87
2018-12-22T18:13:19.434Z,318.57
2018-12-22T18:15:48.101Z,316.02
2018-12-22T18:18:16.732Z,364.07
2018-12-22T18:20:45.297Z,330.07
2018-12-22T18:23:13.926Z,315.47
2018-12-22T18:25:42.561Z,333.90
2018-12-22T18:28:11.479Z,332.80
2018-12-22T18:30:40.169Z,340.90
2018-12-22T18:33:08.694Z,350.27
2018-12-22T18:35:37.253Z,322.20
2018-12-22T18:38:05.847Z,323.43
2018-12-22T18:40:34.435Z,278.20
2018-12-22T18:43:03.138Z,276.23
2018-12-22T18:45:31.761Z,296.00
2018-12-22T18:48:00.297Z,315.27
2018-12-22T18:50:29.002Z,292.40
2018-12-22T18:52:57.553Z,346.43
2018-12-22T18:55:26.097Z,337.47
2018-12-22T18:57:56.592Z,321.17
2018-12-22T19:00:26.126Z,298.13
2018-12-22T19:02:54.708Z,301.20
2018-12-22T19:05:23.665Z,316.63
2018-12-22T19:07:55.351Z,287.70
2018-12-22T19:10:29.058Z,290.10
2018-12-22T19:12:57.701Z,305.00
2018-12-22T19:15:26.264Z,316.33
2018-12-22T19:17:54.796Z,320.07
2018-12-22T19:20:27.411Z,347.57
2018-12-22T19:22:55.971Z,346.33
2018-12-22T19:25:24.792Z,349.13
2018-12-22T19:27:53.877Z,334.73
2018-12-22T19:30:23.374Z,352.53
2018-12-22T19:32:51.948Z,355.37
2018-12-22T19:35:20.521Z,348.68
2018-12-22T19:37:49.098Z,355.13
2018-12-22T19:40:17.674Z,342.77
2018-12-22T19:42:46.266Z,372.07
2018-12-22T19:45:14.851Z,336.30
2018-12-22T19:47:43.500Z,323.07
2018-12-22T19:50:12.080Z,311.25
2018-12-22T19:52:40.645Z,281.43
2018-12-22T19:55:09.238Z,277.00
2018-12-22T19:57:37.766Z,283.20
2018-12-22T20:00:13.585Z,258.07
2018-12-22T20:02:42.158Z,243.70
2018-12-22T20:05:10.834Z,250.23
2018-12-22T20:07:39.365Z,251.40
2018-12-22T20:10:09.194Z,255.07
2018-12-22T20:12:37.762Z,252.43
2018-12-22T20:15:06.630Z,260.00
2018-12-22T20:17:35.541Z,254.17
2018-12-22T20:20:04.470Z,252.63
2018-12-22T20:22:33.115Z,267.00
2018-12-22T20:25:01.699Z,265.27
2018-12-22T20:27:30.264Z,283.63
2018-12-22T20:29:58.899Z,288.37
2018-12-22T20:32:27.428Z,278.57
2018-12-22T20:34:55.992Z,304.77
2018-12-22T20:37:24.784Z,303.63
2018-12-22T20:39:53.912Z,306.60
2018-12-22T20:42:22.596Z,314.10
2018-12-22T20:44:51.159Z,341.03
2018-12-22T20:47:19.717Z,305.87
2018-12-22T20:49:48.419Z,337.37
2018-12-22T20:52:16.995Z,343.63
2018-12-22T20:54:45.916Z,333.07
2018-12-22T20:57:14.605Z,309.17
2018-12-22T20:59:43.182Z,316.87
2018-12-22T21:02:11.810Z,344.40
2018-12-22T21:04:40.392Z,345.70
2018-12-22T21:07:08.926Z,327.60
2018-12-22T21:09:37.486Z,336.80
2018-12-22T21:12:06.088Z,321.40
2018-12-22T21:14:34.655Z,324.13
2018-12-22T21:17:03.223Z,344.00
2018-12-22T21:19:31.786Z,328.77
2018-12-22T21:22:00.350Z,341.83
2018-12-22T21:24:28.921Z,330.83
2018-12-22T21:26:57.508Z,331.70
2018-12-22T21:29:26.064Z,324.60
2018-12-22T21:31:55.229Z,337.97
2018-12-22T21:34:28.284Z,330.60
2018-12-22T21:36:54.323Z,331.77
2018-12-22T21:39:22.880Z,317.63
2018-12-22T21:41:51.484Z,311.30
2018-12-22T21:44:20.334Z,307.27
2018-12-22T21:46:48.870Z,304.43
2018-12-22T21:49:17.554Z,300.90
2018-12-22T21:51:46.123Z,318.73
2018-12-22T21:54:14.709Z,326.07
2018-12-22T21:56:43.260Z,333.43
2018-12-22T21:59:11.829Z,337.87
2018-12-22T22:01:40.362Z,367.40
2018-12-22T22:04:08.906Z,363.50
2018-12-22T22:06:37.935Z,388.10
2018-12-22T22:09:06.918Z,372.57
2018-12-22T22:11:35.617Z,361.27
2018-12-22T22:14:04.130Z,344.63
2018-12-22T22:16:32.735Z,339.23
2018-12-22T22:19:01.291Z,389.70
2018-12-22T22:21:29.858Z,421.13
2018-12-22T22:23:58.426Z,418.23
2018-12-22T22:26:26.981Z,402.23
2018-12-22T22:28:55.516Z,390.87
2018-12-22T22:31:24.073Z,389.77
2018-12-22T22:33:52.590Z,387.90
2018-12-22T22:36:21.113Z,366.27
2018-12-22T22:38:49.682Z,380.50
2018-12-22T22:41:18.237Z,366.37
2018-12-22T22:43:46.813Z,367.00
2018-12-22T22:46:15.369Z,348.00
2018-12-22T22:48:43.953Z,352.23
2018-12-22T22:51:12.630Z,383.53
2018-12-22T22:53:41.197Z,432.07
2018-12-22T22:56:09.775Z,428.30
2018-12-22T22:58:38.317Z,421.27
2018-12-22T23:01:06.992Z,418.27
2018-12-22T23:03:35.569Z,364.20
2018-12-22T23:06:04.167Z,364.20
2018-12-22T23:08:32.712Z,363.23
2018-12-22T23:11:01.362Z,366.83
2018-12-22T23:13:29.973Z,340.73
2018-12-22T23:15:58.588Z,352.47
2018-12-22T23:18:27.158Z,339.77
2018-12-22T23:20:55.727Z,324.47
2018-12-22T23:23:24.259Z,340.57
2018-12-22T23:25:52.789Z,332.93
2018-12-22T23:28:21.299Z,314.90
2018-12-22T23:30:49.918Z,330.43
2018-12-22T23:33:18.809Z,346.67
2018-12-22T23:35:47.345Z,341.23
2018-12-22T23:38:15.896Z,333.50
2018-12-22T23:40:44.468Z,328.70
2018-12-22T23:43:13.029Z,321.07
2018-12-22T23:45:41.566Z,352.17
2018-12-22T23:48:10.142Z,331.43
2018-12-22T23:50:38.726Z,327.40
2018-12-22T23:53:07.315Z,311.53
2018-12-22T23:55:35.900Z,334.13
2018-12-22T23:58:04.507Z,352.87
